Time;durP1;ratioP1;P1;durP2;ratioP2;P2;SDS_P1;SDS_P2;PMS_P1;PMS_P2;Temp;Humidity;BMP_temperature;BMP_pressure;BME280_temperature;BME280_humidity;BME280_pressure;Samples;Min_cycle;Max_cycle;Signal;HPM_P1;HPM_P2
2022/04/20 00:00:09;;;;;;;;;;;7.50;64.30;;;;;;5062011;28;19994;-82
2022/04/20 00:02:34;;;;;;;;;;;7.50;64.20;;;;;;5061803;28;19916;-80
2022/04/20 00:05:00;;;;;;;;;;;7.60;64.70;;;;;;5046883;28;19932;-80
2022/04/20 00:07:26;;;;;;;;;;;7.50;65.00;;;;;;5057894;28;19921;-82
2022/04/20 00:09:51;;;;;;;;;;;7.50;65.60;;;;;;5053733;28;19920;-81
2022/04/20 00:12:17;;;;;;;;;;;7.40;66.80;;;;;;5058455;28;19955;-82
2022/04/20 00:14:43;;;;;;;;;;;7.30;66.50;;;;;;5074856;28;19920;-81
2022/04/20 00:17:08;;;;;;;;;;;7.30;66.20;;;;;;5076346;28;19912;-80
2022/04/20 00:19:34;;;;;;;;;;;7.30;67.00;;;;;;5052579;28;19917;-79
2022/04/20 00:21:59;;;;;;;;;;;7.20;67.90;;;;;;5039779;28;19913;-79
2022/04/20 00:24:25;;;;;;;;;;;7.10;67.70;;;;;;5066769;28;19920;-82
2022/04/20 00:26:50;;;;;;;;;;;7.10;68.70;;;;;;5076144;28;20203;-80
2022/04/20 00:29:16;;;;;;;;;;;7.00;69.10;;;;;;5058916;28;19982;-81
2022/04/20 00:31:41;;;;;;;;;;;7.00;69.30;;;;;;5059440;28;19916;-81
2022/04/20 00:34:07;;;;;;;;;;;7.00;68.90;;;;;;5058282;28;20302;-81
2022/04/20 00:36:32;;;;;;;;;;;6.90;68.70;;;;;;5039957;28;19924;-81
2022/04/20 00:38:58;;;;;;;;;;;6.90;69.00;;;;;;5044880;28;19925;-81
2022/04/20 00:41:24;;;;;;;;;;;6.80;69.70;;;;;;5040686;28;19924;-81
2022/04/20 00:43:50;;;;;;;;;;;6.80;70.90;;;;;;5071447;28;19924;-80
2022/04/20 00:46:16;;;;;;;;;;;6.80;70.50;;;;;;5054191;28;19916;-80
2022/04/20 00:48:42;;;;;;;;;;;6.70;71.20;;;;;;5075819;28;19925;-79
2022/04/20 00:51:08;;;;;;;;;;;6.70;70.90;;;;;;5049704;28;20390;-80
2022/04/20 00:53:35;;;;;;;;;;;6.60;72.20;;;;;;5042321;28;20093;-81
2022/04/20 00:56:00;;;;;;;;;;;6.60;72.40;;;;;;5053080;28;19956;-82
2022/04/20 00:58:26;;;;;;;;;;;6.60;72.50;;;;;;5055719;28;19909;-82
2022/04/20 01:00:51;;;;;;;;;;;6.60;73.50;;;;;;5054966;28;20186;-83
2022/04/20 01:03:17;;;;;;;;;;;6.60;72.40;;;;;;5074982;28;19919;-81
2022/04/20 01:05:42;;;;;;;;;;;6.60;72.50;;;;;;5074988;28;19919;-82
2022/04/20 01:08:08;;;;;;;;;;;6.60;73.30;;;;;;5074001;28;19955;-82
2022/04/20 01:10:34;;;;;;;;;;;6.60;73.70;;;;;;5058537;28;19916;-82
2022/04/20 01:12:59;;;;;;;;;;;6.60;74.80;;;;;;5057256;28;19929;-82
2022/04/20 01:15:25;;;;;;;;;;;6.50;74.40;;;;;;5074127;28;19912;-81
2022/04/20 01:17:50;;;;;;;;;;;6.50;75.10;;;;;;5057746;28;19978;-81
2022/04/20 01:20:16;;;;;;;;;;;6.40;76.50;;;;;;5057616;28;19928;-83
2022/04/20 01:22:42;;;;;;;;;;;6.40;75.60;;;;;;5075568;28;19948;-81
2022/04/20 01:25:08;;;;;;;;;;;6.30;76.20;;;;;;5075675;28;19912;-81
2022/04/20 01:27:34;;;;;;;;;;;6.30;76.60;;;;;;5057563;28;19924;-81
2022/04/20 01:29:59;;;;;;;;;;;6.30;75.00;;;;;;5049252;28;19924;-82
2022/04/20 01:32:25;;;;;;;;;;;6.30;77.30;;;;;;5040179;28;19916;-81
2022/04/20 01:34:52;;;;;;;;;;;6.20;75.90;;;;;;5054367;28;20015;-82
2022/04/20 01:37:18;;;;;;;;;;;6.30;75.10;;;;;;5076682;28;19923;-82
2022/04/20 01:39:43;;;;;;;;;;;6.30;75.10;;;;;;5056716;28;20364;-82
2022/04/20 01:42:10;;;;;;;;;;;6.30;75.90;;;;;;5040252;28;19999;-81
2022/04/20 01:44:36;;;;;;;;;;;6.20;76.30;;;;;;5057265;28;19942;-82
2022/04/20 01:47:02;;;;;;;;;;;6.20;77.10;;;;;;5075778;28;20002;-81
2022/04/20 01:49:27;;;;;;;;;;;6.10;76.60;;;;;;5075937;28;19916;-81
2022/04/20 01:51:54;;;;;;;;;;;6.10;77.80;;;;;;5053954;28;19970;-82
2022/04/20 01:54:19;;;;;;;;;;;6.00;77.80;;;;;;5054768;28;19928;-82
2022/04/20 01:56:46;;;;;;;;;;;6.00;78.10;;;;;;5076410;28;20217;-82
2022/04/20 01:59:12;;;;;;;;;;;6.00;78.50;;;;;;5060236;28;20011;-82
2022/04/20 02:04:22;;;;;;;;;;;5.90;75.50;;;;;;5078464;28;19994;-81
2022/04/20 02:06:47;;;;;;;;;;;6.00;77.50;;;;;;5075189;28;20383;-83
2022/04/20 02:09:13;;;;;;;;;;;6.00;76.40;;;;;;5059706;28;19971;-82
2022/04/20 02:11:38;;;;;;;;;;;6.00;75.00;;;;;;5077351;28;19912;-83
2022/04/20 02:14:04;;;;;;;;;;;6.00;75.70;;;;;;5059760;28;19966;-81
2022/04/20 02:16:30;;;;;;;;;;;6.00;76.70;;;;;;5075538;28;19920;-81
2022/04/20 02:18:56;;;;;;;;;;;6.00;77.10;;;;;;5056758;28;20514;-82
2022/04/20 02:21:22;;;;;;;;;;;5.90;76.60;;;;;;5041361;28;19913;-81
2022/04/20 02:23:47;;;;;;;;;;;5.90;76.00;;;;;;5047241;28;19927;-82
2022/04/20 02:26:13;;;;;;;;;;;6.00;74.80;;;;;;5060717;28;19912;-82
2022/04/20 02:28:38;;;;;;;;;;;5.90;75.70;;;;;;5076197;28;19920;-81
2022/04/20 02:31:04;;;;;;;;;;;5.90;75.30;;;;;;5079615;28;19909;-82
2022/04/20 02:33:29;;;;;;;;;;;5.90;75.10;;;;;;5049096;28;19921;-81
2022/04/20 02:35:56;;;;;;;;;;;5.90;75.40;;;;;;5062783;28;19916;-82
2022/04/20 02:38:22;;;;;;;;;;;5.90;76.00;;;;;;5071951;28;19916;-82
2022/04/20 02:40:49;;;;;;;;;;;5.90;75.30;;;;;;5045583;28;19931;-81
2022/04/20 02:43:14;;;;;;;;;;;5.80;75.70;;;;;;5048733;28;20429;-81
2022/04/20 02:45:40;;;;;;;;;;;5.80;76.00;;;;;;5058586;28;19920;-83
2022/04/20 02:48:06;;;;;;;;;;;5.80;76.70;;;;;;5076937;28;19923;-83
2022/04/20 02:50:31;;;;;;;;;;;5.70;79.20;;;;;;5076953;28;20290;-82
2022/04/20 02:52:57;;;;;;;;;;;5.70;78.30;;;;;;5061043;28;19923;-79
2022/04/20 02:55:23;;;;;;;;;;;5.70;79.70;;;;;;5073896;28;19912;-83
2022/04/20 02:57:48;;;;;;;;;;;5.60;80.20;;;;;;5076622;28;20019;-83
2022/04/20 03:00:14;;;;;;;;;;;5.50;80.50;;;;;;5059903;28;20259;-82
2022/04/20 03:02:40;;;;;;;;;;;5.50;80.70;;;;;;5057538;28;19909;-83
2022/04/20 03:05:06;;;;;;;;;;;5.50;80.70;;;;;;5055851;28;20319;-83
2022/04/20 03:07:31;;;;;;;;;;;5.40;82.70;;;;;;5077666;28;19908;-82
2022/04/20 03:09:57;;;;;;;;;;;5.40;84.90;;;;;;5078823;28;19966;-83
2022/04/20 03:12:22;;;;;;;;;;;5.20;86.20;;;;;;5060907;28;19951;-84
2022/04/20 03:14:48;;;;;;;;;;;5.20;86.20;;;;;;5060385;28;19912;-83
2022/04/20 03:17:14;;;;;;;;;;;5.10;86.60;;;;;;5058209;28;20421;-84
2022/04/20 03:19:39;;;;;;;;;;;5.10;88.20;;;;;;5077586;28;19920;-83
2022/04/20 03:22:05;;;;;;;;;;;5.10;87.90;;;;;;5064170;28;19916;-84
2022/04/20 03:24:30;;;;;;;;;;;5.10;89.30;;;;;;5062163;28;20385;-83
2022/04/20 03:26:56;;;;;;;;;;;5.00;89.20;;;;;;5078520;28;19958;-84
2022/04/20 03:29:21;;;;;;;;;;;5.00;90.10;;;;;;5078584;28;19939;-83
2022/04/20 03:31:47;;;;;;;;;;;4.90;90.20;;;;;;5056220;28;19925;-83
2022/04/20 03:34:13;;;;;;;;;;;4.90;89.80;;;;;;5061765;28;19916;-83
2022/04/20 03:36:38;;;;;;;;;;;5.00;89.20;;;;;;5078637;28;19919;-83
2022/04/20 03:39:04;;;;;;;;;;;5.00;90.40;;;;;;5063052;28;19920;-83
2022/04/20 03:41:29;;;;;;;;;;;5.00;90.20;;;;;;5051976;28;19928;-83
2022/04/20 03:43:55;;;;;;;;;;;5.00;89.60;;;;;;5046637;28;20023;-84
2022/04/20 03:46:22;;;;;;;;;;;5.00;90.00;;;;;;5054523;28;19921;-84
2022/04/20 03:48:47;;;;;;;;;;;5.00;88.60;;;;;;5055019;28;19922;-84
2022/04/20 03:51:13;;;;;;;;;;;5.00;87.60;;;;;;5071241;28;20007;-84
2022/04/20 03:53:38;;;;;;;;;;;5.00;88.20;;;;;;5054803;28;19912;-84
2022/04/20 03:56:04;;;;;;;;;;;5.10;86.40;;;;;;5054799;28;19994;-84
2022/04/20 03:58:29;;;;;;;;;;;5.10;86.50;;;;;;5054535;28;19993;-84
2022/04/20 04:00:55;;;;;;;;;;;5.10;85.70;;;;;;5054334;28;19920;-84
2022/04/20 04:03:21;;;;;;;;;;;5.10;85.60;;;;;;5054680;28;20028;-85
2022/04/20 04:05:46;;;;;;;;;;;5.10;86.10;;;;;;5054511;28;19917;-84
2022/04/20 04:08:12;;;;;;;;;;;5.10;86.30;;;;;;5071119;28;20267;-84
2022/04/20 04:10:38;;;;;;;;;;;5.10;88.10;;;;;;5070873;28;19913;-84
2022/04/20 04:13:03;;;;;;;;;;;5.00;86.80;;;;;;5071278;28;19912;-84
2022/04/20 04:15:29;;;;;;;;;;;5.00;87.00;;;;;;5071180;28;19912;-84
2022/04/20 04:17:58;;;;;;;;;;;5.00;89.20;;;;;;5071126;28;19913;-84
2022/04/20 04:20:27;;;;;;;;;;;4.90;90.50;;;;;;5054936;28;20456;-84
2022/04/20 04:22:53;;;;;;;;;;;4.80;90.70;;;;;;5070896;28;19914;-84
2022/04/20 04:25:19;;;;;;;;;;;4.70;91.00;;;;;;5070762;28;19913;-84
2022/04/20 04:27:45;;;;;;;;;;;4.70;91.60;;;;;;5070955;28;19912;-84
2022/04/20 04:30:11;;;;;;;;;;;4.60;92.30;;;;;;5075597;28;19926;-84
2022/04/20 04:32:36;;;;;;;;;;;4.60;92.40;;;;;;5076762;28;19913;-85
2022/04/20 04:35:02;;;;;;;;;;;4.60;92.50;;;;;;5061017;28;19966;-85
2022/04/20 04:37:28;;;;;;;;;;;4.50;93.10;;;;;;5076908;28;19946;-85
2022/04/20 04:39:53;;;;;;;;;;;4.50;93.80;;;;;;5060775;28;19924;-85
2022/04/20 04:42:19;;;;;;;;;;;4.40;94.00;;;;;;5078296;28;19909;-85
2022/04/20 04:44:45;;;;;;;;;;;4.40;94.00;;;;;;5062108;28;19912;-86
2022/04/20 04:49:55;;;;;;;;;;;4.30;94.50;;;;;;5071171;28;20282;-84
2022/04/20 04:52:20;;;;;;;;;;;4.30;94.70;;;;;;5052531;28;19924;-84
2022/04/20 04:54:46;;;;;;;;;;;4.30;94.50;;;;;;5053520;28;19916;-84
2022/04/20 04:57:12;;;;;;;;;;;4.40;94.30;;;;;;5067015;28;20011;-84
2022/04/20 04:59:39;;;;;;;;;;;4.40;94.90;;;;;;5069566;28;20290;-84
2022/04/20 05:02:05;;;;;;;;;;;4.50;95.10;;;;;;5053108;28;19917;-84
2022/04/20 05:04:30;;;;;;;;;;;4.50;95.80;;;;;;5069943;28;20022;-84
2022/04/20 05:06:57;;;;;;;;;;;4.50;95.10;;;;;;5070171;28;19920;-84
2022/04/20 05:09:22;;;;;;;;;;;4.60;95.10;;;;;;5069511;22;19926;-82
2022/04/20 05:11:51;;;;;;;;;;;4.60;94.30;;;;;;5045998;28;19920;-82
2022/04/20 05:14:16;;;;;;;;;;;4.70;94.60;;;;;;5032961;28;19913;-82
2022/04/20 05:16:42;;;;;;;;;;;4.80;93.30;;;;;;5016131;28;19914;-82
2022/04/20 05:19:08;;;;;;;;;;;4.90;94.10;;;;;;5026423;28;19922;-83
2022/04/20 05:21:33;;;;;;;;;;;4.90;93.80;;;;;;5029542;28;19987;-83
2022/04/20 05:23:59;;;;;;;;;;;5.00;94.40;;;;;;5031667;28;19924;-82
2022/04/20 05:26:25;;;;;;;;;;;5.10;92.80;;;;;;5035526;28;19921;-82
2022/04/20 05:28:51;;;;;;;;;;;5.20;93.30;;;;;;5051897;28;19994;-82
2022/04/20 05:31:17;;;;;;;;;;;5.30;92.90;;;;;;5034213;28;19921;-83
2022/04/20 05:33:42;;;;;;;;;;;5.30;93.50;;;;;;5040879;28;20366;-83
2022/04/20 05:36:08;;;;;;;;;;;5.40;93.40;;;;;;5036954;28;19955;-83
2022/04/20 05:44:02;;;;;;;;;;;5.60;91.20;;;;;;5036426;28;19932;-83
2022/04/20 05:46:27;;;;;;;;;;;5.70;92.00;;;;;;5020136;28;19921;-82
2022/04/20 05:48:53;;;;;;;;;;;5.80;90.20;;;;;;5020676;28;19917;-82
2022/04/20 05:51:18;;;;;;;;;;;5.80;90.60;;;;;;5015383;28;19925;-82
2022/04/20 05:53:44;;;;;;;;;;;5.90;90.50;;;;;;5037706;28;19967;-84
2022/04/20 05:56:09;;;;;;;;;;;6.00;90.90;;;;;;5026921;28;19916;-83
2022/04/20 05:58:35;;;;;;;;;;;6.10;87.90;;;;;;5023172;28;19924;-82
2022/04/20 06:01:00;;;;;;;;;;;6.10;87.40;;;;;;5030463;28;19940;-83
2022/04/20 06:03:26;;;;;;;;;;;6.20;87.70;;;;;;5026319;28;19991;-82
2022/04/20 06:05:52;;;;;;;;;;;6.30;90.30;;;;;;5045484;28;20341;-83
2022/04/20 06:08:17;;;;;;;;;;;6.40;88.70;;;;;;5043632;28;19939;-82
2022/04/20 06:10:46;;;;;;;;;;;6.50;85.70;;;;;;5059223;28;19916;-82
2022/04/20 06:13:11;;;;;;;;;;;6.60;86.70;;;;;;5032803;28;19921;-82
2022/04/20 06:15:38;;;;;;;;;;;6.70;83.80;;;;;;5039110;28;20007;-83
2022/04/20 06:18:03;;;;;;;;;;;6.70;87.30;;;;;;5039336;28;19924;-82
2022/04/20 06:20:29;;;;;;;;;;;6.80;82.30;;;;;;5041730;28;19914;-82
2022/04/20 06:22:55;;;;;;;;;;;6.90;88.20;;;;;;5046717;28;19913;-82
2022/04/20 06:25:20;;;;;;;;;;;7.00;81.70;;;;;;5039570;28;19913;-82
2022/04/20 06:27:46;;;;;;;;;;;7.10;81.70;;;;;;5023382;28;20257;-82
2022/04/20 06:30:11;;;;;;;;;;;7.20;84.00;;;;;;5053321;28;19912;-82
2022/04/20 06:32:37;;;;;;;;;;;7.30;78.60;;;;;;5029820;28;20070;-82
2022/04/20 06:35:03;;;;;;;;;;;7.30;77.70;;;;;;5030321;28;19956;-82
2022/04/20 06:37:28;;;;;;;;;;;7.40;77.20;;;;;;5029509;28;20303;-82
2022/04/20 06:39:57;;;;;;;;;;;7.50;80.40;;;;;;5041446;28;19913;-82
2022/04/20 06:42:22;;;;;;;;;;;7.60;83.20;;;;;;5040225;28;19917;-82
2022/04/20 06:44:48;;;;;;;;;;;7.60;80.30;;;;;;5036240;28;19932;-82
2022/04/20 06:47:13;;;;;;;;;;;7.80;82.60;;;;;;5040189;28;19966;-82
2022/04/20 06:49:39;;;;;;;;;;;7.90;79.00;;;;;;5027792;28;19940;-82
2022/04/20 07:00:18;;;;;;;;;;;8.00;82.60;;;;;;5056245;28;19943;-82
2022/04/20 07:02:43;;;;;;;;;;;8.10;75.40;;;;;;5054679;28;19913;-81
2022/04/20 07:05:09;;;;;;;;;;;8.20;78.00;;;;;;5054279;28;20127;-82
2022/04/20 07:07:35;;;;;;;;;;;8.20;74.80;;;;;;5028000;28;19918;-82
2022/04/20 07:10:01;;;;;;;;;;;8.30;73.50;;;;;;5033670;28;20391;-82
2022/04/20 07:12:26;;;;;;;;;;;8.40;70.90;;;;;;5019012;28;19932;-83
2022/04/20 07:14:52;;;;;;;;;;;8.50;73.50;;;;;;5037266;28;20283;-82
2022/04/20 07:17:17;;;;;;;;;;;8.60;72.60;;;;;;5034923;28;19921;-82
2022/04/20 07:19:43;;;;;;;;;;;8.70;71.20;;;;;;5026105;28;19983;-82
2022/04/20 07:22:08;;;;;;;;;;;8.70;78.60;;;;;;5019068;28;19921;-82
2022/04/20 07:24:34;;;;;;;;;;;8.80;71.70;;;;;;5018903;28;19913;-82
2022/04/20 07:26:59;;;;;;;;;;;8.90;68.10;;;;;;5021528;28;19913;-82
2022/04/20 07:29:25;;;;;;;;;;;9.00;69.30;;;;;;5052590;28;19913;-83
2022/04/20 07:31:50;;;;;;;;;;;9.00;78.20;;;;;;5020672;28;19967;-83
2022/04/20 07:34:16;;;;;;;;;;;9.10;66.10;;;;;;5047648;28;19928;-83
2022/04/20 07:36:41;;;;;;;;;;;9.20;65.20;;;;;;5018128;28;19959;-83
2022/04/20 07:39:07;;;;;;;;;;;9.20;66.80;;;;;;5028078;28;20045;-82
2022/04/20 07:41:32;;;;;;;;;;;9.30;60.00;;;;;;5035605;28;19920;-83
2022/04/20 07:43:58;;;;;;;;;;;9.40;64.50;;;;;;5039186;28;19967;-82
2022/04/20 07:46:23;;;;;;;;;;;9.50;65.80;;;;;;5020131;28;19961;-82
2022/04/20 07:48:49;;;;;;;;;;;9.60;63.50;;;;;;5019457;28;19917;-82
2022/04/20 07:51:14;;;;;;;;;;;9.80;61.00;;;;;;5054312;28;19935;-82
2022/04/20 07:53:40;;;;;;;;;;;9.80;58.60;;;;;;5034567;28;19913;-82
2022/04/20 07:56:06;;;;;;;;;;;9.80;57.20;;;;;;5019170;28;19913;-82
2022/04/20 07:58:31;;;;;;;;;;;9.80;58.90;;;;;;5019425;28;19918;-82
2022/04/20 08:00:57;;;;;;;;;;;9.90;56.70;;;;;;5029387;28;19928;-83
2022/04/20 08:03:24;;;;;;;;;;;10.00;57.40;;;;;;5040007;28;20415;-82
2022/04/20 08:05:53;;;;;;;;;;;10.10;56.60;;;;;;5055743;28;20362;-82
2022/04/20 08:08:20;;;;;;;;;;;10.10;58.20;;;;;;5056185;28;20733;-82
2022/04/20 08:10:45;;;;;;;;;;;10.20;56.90;;;;;;5046805;28;19983;-83
2022/04/20 08:15:55;;;;;;;;;;;10.30;55.30;;;;;;5036986;28;19940;-82
2022/04/20 08:18:21;;;;;;;;;;;10.40;54.20;;;;;;5036215;28;19913;-82
2022/04/20 08:20:46;;;;;;;;;;;10.40;54.40;;;;;;5018681;28;19944;-82
2022/04/20 08:23:12;;;;;;;;;;;10.60;53.80;;;;;;5027067;28;20000;-83
2022/04/20 08:25:39;;;;;;;;;;;10.60;53.00;;;;;;5044580;28;19964;-83
2022/04/20 08:28:05;;;;;;;;;;;10.70;53.50;;;;;;5032349;28;19909;-83
2022/04/20 08:30:31;;;;;;;;;;;10.80;54.10;;;;;;5016791;28;19917;-83
2022/04/20 08:32:57;;;;;;;;;;;11.00;53.60;;;;;;5015763;28;19928;-83
2022/04/20 08:35:22;;;;;;;;;;;11.00;51.70;;;;;;5015068;28;19937;-84
2022/04/20 08:37:48;;;;;;;;;;;11.10;51.30;;;;;;5014292;28;19920;-83
2022/04/20 08:40:13;;;;;;;;;;;11.00;53.30;;;;;;5014240;28;19913;-83
2022/04/20 08:42:39;;;;;;;;;;;11.00;53.40;;;;;;5030599;28;19909;-83
2022/04/20 08:45:05;;;;;;;;;;;11.00;54.00;;;;;;5014711;28;19920;-83
2022/04/20 08:47:34;;;;;;;;;;;11.10;53.50;;;;;;5031132;28;19920;-83
2022/04/20 08:50:01;;;;;;;;;;;11.10;50.50;;;;;;5013930;28;19920;-83
2022/04/20 08:52:39;;;;;;;;;;;11.20;49.00;;;;;;5014319;28;20341;-83
2022/04/20 08:55:05;;;;;;;;;;;11.30;51.60;;;;;;5031118;28;19909;-83
2022/04/20 08:57:32;;;;;;;;;;;11.30;49.60;;;;;;5031267;28;20301;-83
2022/04/20 08:59:58;;;;;;;;;;;11.40;50.20;;;;;;5030567;28;19999;-83
2022/04/20 09:02:28;;;;;;;;;;;11.40;50.20;;;;;;5014115;28;19955;-83
2022/04/20 09:04:54;;;;;;;;;;;11.40;50.40;;;;;;5014458;28;20372;-83
2022/04/20 09:07:20;;;;;;;;;;;11.40;50.00;;;;;;5030523;28;19916;-83
2022/04/20 09:09:46;;;;;;;;;;;11.50;50.00;;;;;;5013774;28;19921;-83
2022/04/20 09:12:16;;;;;;;;;;;11.60;51.00;;;;;;5030307;28;19913;-83
2022/04/20 09:14:43;;;;;;;;;;;11.60;48.80;;;;;;5030788;28;19924;-83
2022/04/20 09:17:18;;;;;;;;;;;11.50;49.20;;;;;;5030267;28;20433;-83
2022/04/20 09:19:45;;;;;;;;;;;11.60;48.40;;;;;;5014716;28;19931;-83
2022/04/20 09:22:26;;;;;;;;;;;11.60;50.40;;;;;;5030337;28;19910;-83
2022/04/20 09:24:58;;;;;;;;;;;11.60;50.40;;;;;;5031516;28;19910;-84
2022/04/20 09:27:33;;;;;;;;;;;11.50;46.50;;;;;;5032834;28;20302;-83
2022/04/20 09:29:59;;;;;;;;;;;11.40;48.00;;;;;;5016506;28;19914;-84
2022/04/20 09:32:41;;;;;;;;;;;11.40;45.20;;;;;;5031555;28;19917;-83
2022/04/20 09:35:12;;;;;;;;;;;11.50;46.60;;;;;;5033262;28;19921;-83
2022/04/20 09:37:38;;;;;;;;;;;11.60;47.10;;;;;;5033822;28;20239;-83
2022/04/20 09:40:05;;;;;;;;;;;11.60;48.00;;;;;;5017217;28;19963;-83
2022/04/20 09:42:33;;;;;;;;;;;11.70;46.70;;;;;;5032263;28;19909;-83
2022/04/20 09:45:07;;;;;;;;;;;11.80;47.90;;;;;;5032036;28;20424;-83
2022/04/20 09:50:30;;;;;;;;;;;11.90;49.20;;;;;;5033642;28;20014;-83
2022/04/20 09:52:58;;;;;;;;;;;12.00;46.50;;;;;;5031049;28;19913;-83
2022/04/20 09:55:30;;;;;;;;;;;12.00;47.40;;;;;;5030694;28;19909;-83
2022/04/20 09:58:17;;;;;;;;;;;12.00;47.70;;;;;;5031288;28;19955;-83
2022/04/20 10:00:53;;;;;;;;;;;12.10;49.20;;;;;;5031230;28;19909;-83
2022/04/20 10:03:39;;;;;;;;;;;12.20;49.50;;;;;;5014956;28;20332;-83
2022/04/20 10:06:05;;;;;;;;;;;12.30;48.30;;;;;;5014936;28;19914;-83
2022/04/20 10:08:31;;;;;;;;;;;12.40;47.00;;;;;;5013987;28;20419;-83
2022/04/20 10:10:57;;;;;;;;;;;12.40;48.80;;;;;;5014881;28;19917;-83
2022/04/20 10:13:26;;;;;;;;;;;12.40;48.60;;;;;;5015737;28;19939;-82
2022/04/20 10:16:05;;;;;;;;;;;12.50;47.70;;;;;;5032178;28;20287;-83
2022/04/20 10:18:33;;;;;;;;;;;12.60;46.40;;;;;;5016794;28;19913;-83
2022/04/20 10:21:02;;;;;;;;;;;12.60;47.40;;;;;;5014554;28;20003;-83
2022/04/20 10:23:31;;;;;;;;;;;12.70;46.10;;;;;;5030970;28;20376;-83
2022/04/20 10:25:59;;;;;;;;;;;12.60;47.40;;;;;;5015345;28;19948;-83
2022/04/20 10:28:30;;;;;;;;;;;12.70;49.40;;;;;;5031342;28;19909;-83
2022/04/20 10:31:05;;;;;;;;;;;12.70;46.00;;;;;;5032928;28;19909;-83
2022/04/20 10:33:33;;;;;;;;;;;12.80;45.80;;;;;;5031018;28;20003;-83
2022/04/20 10:35:59;;;;;;;;;;;12.90;48.40;;;;;;5015050;28;19913;-83
2022/04/20 10:38:26;;;;;;;;;;;12.80;46.00;;;;;;5031860;28;19963;-83
2022/04/20 10:40:59;;;;;;;;;;;12.80;45.60;;;;;;5030806;28;19909;-83
2022/04/20 10:43:25;;;;;;;;;;;12.70;48.20;;;;;;5030921;28;19942;-83
2022/04/20 10:46:07;;;;;;;;;;;12.80;46.10;;;;;;5014772;28;19913;-83
2022/04/20 10:48:42;;;;;;;;;;;12.90;45.60;;;;;;5014421;28;19917;-83
2022/04/20 10:51:12;;;;;;;;;;;13.00;44.40;;;;;;5034132;28;19935;-83
2022/04/20 10:53:38;;;;;;;;;;;13.20;45.60;;;;;;5017171;28;19917;-83
2022/04/20 10:56:03;;;;;;;;;;;13.20;43.70;;;;;;5017697;28;19996;-83
2022/04/20 10:58:29;;;;;;;;;;;13.30;47.90;;;;;;5017936;28;20016;-83
2022/04/20 11:01:11;;;;;;;;;;;13.30;45.00;;;;;;5017640;28;19913;-83
2022/04/20 11:03:55;;;;;;;;;;;13.20;46.40;;;;;;5017586;28;19920;-83
2022/04/20 11:06:25;;;;;;;;;;;13.20;46.70;;;;;;5033597;28;19909;-82
2022/04/20 11:20:04;;;;;;;;;;;13.70;45.10;;;;;;5054322;28;20265;-86
2022/04/20 11:22:30;;;;;;;;;;;13.80;43.00;;;;;;5052845;28;19951;-86
2022/04/20 11:25:06;;;;;;;;;;;13.90;45.70;;;;;;5053315;28;19917;-86
2022/04/20 11:27:35;;;;;;;;;;;14.00;44.50;;;;;;5053624;28;20340;-86
2022/04/20 11:30:03;;;;;;;;;;;14.00;45.40;;;;;;5052842;28;19959;-86
2022/04/20 11:32:30;;;;;;;;;;;14.00;44.00;;;;;;5055365;28;19917;-86
2022/04/20 11:35:06;;;;;;;;;;;13.90;45.70;;;;;;5053845;28;19909;-86
2022/04/20 11:37:33;;;;;;;;;;;13.70;44.60;;;;;;5037547;28;19916;-86
2022/04/20 11:39:59;;;;;;;;;;;13.60;45.30;;;;;;5053502;28;19939;-85
2022/04/20 11:42:25;;;;;;;;;;;13.70;45.10;;;;;;5054121;28;20343;-86
2022/04/20 11:44:50;;;;;;;;;;;13.80;46.50;;;;;;5037939;28;19917;-85
2022/04/20 11:47:17;;;;;;;;;;;13.90;45.10;;;;;;5056287;28;19988;-84
2022/04/20 11:49:45;;;;;;;;;;;13.90;44.30;;;;;;5053792;28;20205;-85
2022/04/20 11:52:14;;;;;;;;;;;13.90;43.50;;;;;;5038602;28;20273;-86
2022/04/20 11:54:40;;;;;;;;;;;13.80;46.10;;;;;;5039031;28;20141;-85
2022/04/20 11:57:09;;;;;;;;;;;13.90;43.50;;;;;;5038838;28;19944;-85
2022/04/20 11:59:45;;;;;;;;;;;14.00;44.50;;;;;;5055614;28;19969;-85
2022/04/20 12:02:13;;;;;;;;;;;14.00;44.80;;;;;;5036966;28;19921;-86
2022/04/20 12:04:39;;;;;;;;;;;14.00;44.20;;;;;;5054646;28;19975;-85
2022/04/20 12:07:05;;;;;;;;;;;14.10;41.80;;;;;;5038505;28;19913;-86
2022/04/20 12:09:32;;;;;;;;;;;14.20;42.50;;;;;;5053693;28;19917;-85
2022/04/20 12:11:58;;;;;;;;;;;14.40;44.60;;;;;;5055904;28;20508;-85
2022/04/20 12:14:28;;;;;;;;;;;14.40;42.70;;;;;;5037978;28;19913;-85
2022/04/20 12:16:57;;;;;;;;;;;14.40;42.20;;;;;;5055292;28;19962;-86
2022/04/20 12:19:23;;;;;;;;;;;14.30;44.20;;;;;;5054794;28;20552;-86
2022/04/20 12:21:50;;;;;;;;;;;14.30;41.30;;;;;;5038890;28;19988;-86
2022/04/20 12:24:25;;;;;;;;;;;14.40;43.50;;;;;;5055900;28;19925;-85
2022/04/20 12:26:51;;;;;;;;;;;14.40;41.80;;;;;;5053459;28;20336;-85
2022/04/20 12:29:19;;;;;;;;;;;14.50;42.50;;;;;;5054044;28;19916;-85
2022/04/20 12:31:45;;;;;;;;;;;14.60;41.90;;;;;;5037609;28;19916;-85
2022/04/20 12:34:13;;;;;;;;;;;14.70;41.30;;;;;;5037787;28;20029;-86
2022/04/20 12:36:58;;;;;;;;;;;14.80;41.50;;;;;;5056813;28;19909;-85
2022/04/20 12:39:27;;;;;;;;;;;15.00;41.80;;;;;;5058476;28;19919;-84
2022/04/20 12:41:53;;;;;;;;;;;15.00;44.00;;;;;;5076670;28;19904;-83
2022/04/20 12:44:35;;;;;;;;;;;14.90;43.00;;;;;;5076359;28;19901;-84
2022/04/20 12:47:10;;;;;;;;;;;14.80;43.00;;;;;;5066645;28;19927;-84
2022/04/20 12:49:36;;;;;;;;;;;14.80;42.50;;;;;;5051692;28;20400;-84
2022/04/20 12:52:15;;;;;;;;;;;14.80;42.30;;;;;;5050633;28;19913;-85
2022/04/20 12:54:51;;;;;;;;;;;14.80;42.80;;;;;;5034120;28;19916;-84
2022/04/20 13:02:56;;;;;;;;;;;14.80;42.20;;;;;;5051455;28;20223;-85
2022/04/20 13:05:21;;;;;;;;;;;14.80;42.00;;;;;;5054925;28;19912;-84
2022/04/20 13:07:47;;;;;;;;;;;14.90;41.80;;;;;;5050616;28;20388;-83
2022/04/20 13:10:12;;;;;;;;;;;14.90;42.30;;;;;;5033415;28;19978;-84
2022/04/20 13:12:48;;;;;;;;;;;14.80;40.70;;;;;;5050477;28;20031;-83
2022/04/20 13:15:13;;;;;;;;;;;14.70;41.70;;;;;;5050602;28;19996;-84
2022/04/20 13:17:39;;;;;;;;;;;14.80;40.80;;;;;;5052561;28;19951;-84
2022/04/20 13:20:04;;;;;;;;;;;14.80;41.70;;;;;;5033330;28;19913;-85
2022/04/20 13:22:30;;;;;;;;;;;14.90;40.40;;;;;;5050210;28;20384;-84
2022/04/20 13:27:55;;;;;;;;;;;15.00;40.60;;;;;;5051399;28;19972;-84
2022/04/20 13:30:24;;;;;;;;;;;15.00;38.20;;;;;;5050719;28;19923;-84
2022/04/20 13:32:50;;;;;;;;;;;14.90;40.50;;;;;;5033951;28;19986;-84
2022/04/20 13:35:16;;;;;;;;;;;14.90;41.00;;;;;;5051046;28;19948;-84
2022/04/20 13:37:42;;;;;;;;;;;14.90;40.00;;;;;;5034877;28;20036;-84
2022/04/20 13:40:08;;;;;;;;;;;14.90;42.90;;;;;;5050695;28;19917;-84
2022/04/20 13:42:33;;;;;;;;;;;15.00;44.90;;;;;;5034789;28;19917;-85
2022/04/20 13:44:59;;;;;;;;;;;15.00;41.20;;;;;;5034975;28;19948;-84
2022/04/20 13:47:24;;;;;;;;;;;15.00;42.90;;;;;;5051490;28;19913;-84
2022/04/20 13:49:50;;;;;;;;;;;15.00;45.10;;;;;;5050551;28;19921;-84
2022/04/20 13:52:15;;;;;;;;;;;15.00;43.40;;;;;;5033819;28;20446;-84
2022/04/20 13:54:41;;;;;;;;;;;15.10;40.80;;;;;;5034541;28;19917;-84
2022/04/20 13:57:06;;;;;;;;;;;15.00;39.40;;;;;;5051232;28;20373;-84
2022/04/20 13:59:32;;;;;;;;;;;14.90;41.10;;;;;;5051038;28;19913;-85
2022/04/20 14:01:57;;;;;;;;;;;14.80;41.30;;;;;;5051668;28;19921;-85
2022/04/20 14:04:24;;;;;;;;;;;14.80;42.90;;;;;;5062467;28;19912;-84
2022/04/20 14:06:50;;;;;;;;;;;14.80;40.30;;;;;;5049441;28;20331;-84
2022/04/20 14:09:16;;;;;;;;;;;14.80;41.00;;;;;;5031717;28;20373;-84
2022/04/20 14:11:41;;;;;;;;;;;14.80;40.70;;;;;;5032651;28;19927;-84
2022/04/20 14:14:07;;;;;;;;;;;14.90;39.20;;;;;;5048972;28;19909;-84
2022/04/20 14:16:33;;;;;;;;;;;15.00;42.10;;;;;;5049199;28;19935;-84
2022/04/20 14:18:58;;;;;;;;;;;14.90;41.50;;;;;;5048356;28;19916;-84
2022/04/20 14:21:23;;;;;;;;;;;15.00;40.90;;;;;;5048719;28;19913;-84
2022/04/20 14:23:49;;;;;;;;;;;15.00;40.80;;;;;;5032257;28;20140;-84
2022/04/20 14:34:27;;;;;;;;;;;14.90;39.30;;;;;;5053298;28;19950;-84
2022/04/20 14:36:52;;;;;;;;;;;14.80;39.00;;;;;;5052664;28;20369;-84
2022/04/20 14:39:17;;;;;;;;;;;14.80;42.00;;;;;;5051901;28;19954;-83
2022/04/20 14:41:43;;;;;;;;;;;14.80;41.10;;;;;;5036047;28;19927;-84
2022/04/20 14:44:09;;;;;;;;;;;14.90;38.30;;;;;;5054206;28;19931;-84
2022/04/20 14:46:35;;;;;;;;;;;14.90;39.10;;;;;;5035831;28;19928;-84
2022/04/20 14:49:00;;;;;;;;;;;15.00;40.20;;;;;;5051704;28;19908;-84
2022/04/20 14:51:26;;;;;;;;;;;15.10;39.00;;;;;;5052352;28;19913;-84
2022/04/20 14:53:51;;;;;;;;;;;15.10;42.00;;;;;;5035708;28;19967;-84
2022/04/20 14:56:17;;;;;;;;;;;15.20;42.90;;;;;;5052191;28;20385;-84
2022/04/20 14:58:43;;;;;;;;;;;15.20;36.50;;;;;;5052838;28;19909;-84
2022/04/20 15:01:09;;;;;;;;;;;15.20;38.50;;;;;;5050287;28;19967;-84
2022/04/20 15:03:35;;;;;;;;;;;15.10;40.60;;;;;;5051671;28;20426;-84
2022/04/20 15:06:00;;;;;;;;;;;15.10;37.70;;;;;;5053170;28;19912;-84
2022/04/20 15:08:26;;;;;;;;;;;15.10;40.80;;;;;;5051395;28;19970;-84
2022/04/20 15:10:51;;;;;;;;;;;15.10;37.80;;;;;;5034884;28;20297;-84
2022/04/20 15:13:17;;;;;;;;;;;15.10;36.50;;;;;;5035377;28;20381;-85